KLOZ/LOZ METAR and TAF weather

Enter ICAO airport designator
Station Type Date Time Source
KLOZ METAR 2022/11/26 08:53 UTC NOAA

KLOZ 260853Z AUTO 00000KT 1/4SM FZFG VV001 M01/M01 A3020 RMK AO2 SLP231 T10111011 50001


Station Type Date Time Source
KLOZ Decoded METAR 2022/11/26 08:53 UTC NOAA

LONDON-CORBIN AIRPORT, KY, United States (KLOZ) 37-05N 084-04W 362M
Nov 26, 2022 - 03:53 AM EST / 2022.11.26 0853 UTC
Wind: Calm:0
Visibility: 1/4 mile(s):0
Sky conditions: obscured
Weather: freezing fog
Temperature: 30.0 F (-1.1 C)
Dew Point: 30.0 F (-1.1 C)
Relative Humidity: 100%
Pressure (altimeter): 30.2 in. Hg (1022 hPa)
Pressure tendency: 0.00 inches (0.1 hPa) higher than three hours ago
ob: KLOZ 260853Z AUTO 00000KT 1/4SM FZFG VV001 M01/M01 A3020 RMK AO2 SLP231 T10111011 50001
cycle: 9

Station Type Date Time Source
KLOZ TAF 2022/11/26 06:42 UTC NOAA

TAF KLOZ 260540Z 2606/2706 VRB03KT 6SM BR SCT250
TEMPO 2606/2608 1SM BR FEW002
FM260800 00000KT 6SM BR FEW200
FM261300 16004KT P6SM SCT200
FM270200 VRB03KT P6SM OVC090

Example: see airport list